createdAt,value
2018-01-14T00:00:50.760Z,17.00
2018-01-14T00:03:18.817Z,15.10
2018-01-14T00:05:46.592Z,17.12
2018-01-14T00:08:14.763Z,15.57
2018-01-14T00:10:42.417Z,16.23
2018-01-14T00:13:09.953Z,15.65
2018-01-14T00:15:38.487Z,16.98
2018-01-14T00:18:06.490Z,16.42
2018-01-14T00:20:34.039Z,16.17
2018-01-14T00:23:01.659Z,16.12
2018-01-14T00:25:29.208Z,14.98
2018-01-14T00:27:56.781Z,17.67
2018-01-14T00:30:24.303Z,16.20
2018-01-14T00:32:52.596Z,16.23
2018-01-14T00:35:20.180Z,17.05
2018-01-14T00:37:47.695Z,15.13
2018-01-14T00:40:15.293Z,16.58
2018-01-14T00:42:42.805Z,16.90
2018-01-14T00:45:10.339Z,14.48
2018-01-14T00:47:37.878Z,14.95
2018-01-14T00:50:05.416Z,14.75
2018-01-14T00:52:33.705Z,14.30
2018-01-14T00:55:01.235Z,16.87
2018-01-14T00:57:28.744Z,14.70
2018-01-14T00:59:56.390Z,14.23
2018-01-14T01:02:23.904Z,14.80
2018-01-14T01:04:51.516Z,14.38
2018-01-14T01:07:19.048Z,13.95
2018-01-14T01:09:47.348Z,14.20
2018-01-14T01:12:14.882Z,15.25
2018-01-14T01:14:43.164Z,14.82
2018-01-14T01:17:11.465Z,15.55
2018-01-14T01:19:39.033Z,14.70
2018-01-14T01:22:06.557Z,14.43
2018-01-14T01:24:34.159Z,15.70
2018-01-14T01:27:01.712Z,14.75
2018-01-14T01:29:29.220Z,14.57
2018-01-14T01:31:57.549Z,15.32
2018-01-14T01:34:25.066Z,15.70
2018-01-14T01:36:53.379Z,15.00
2018-01-14T01:39:20.943Z,15.05
2018-01-14T01:41:48.517Z,15.32
2018-01-14T01:44:16.022Z,14.65
2018-01-14T01:46:43.629Z,15.52
2018-01-14T01:49:11.180Z,14.45
2018-01-14T01:51:38.836Z,15.13
2018-01-14T01:54:07.121Z,15.73
2018-01-14T01:56:34.655Z,15.18
2018-01-14T01:59:02.193Z,15.90
2018-01-14T02:01:29.711Z,15.02
2018-01-14T02:03:57.267Z,15.93
2018-01-14T02:06:24.784Z,16.10
2018-01-14T02:08:52.388Z,16.55
2018-01-14T02:11:20.795Z,17.00
2018-01-14T02:13:48.333Z,16.60
2018-01-14T02:16:15.857Z,17.12
2018-01-14T02:18:43.383Z,14.73
2018-01-14T02:21:10.888Z,15.40
2018-01-14T02:23:39.195Z,14.93
2018-01-14T02:26:06.709Z,16.12
2018-01-14T02:28:34.337Z,16.08
2018-01-14T02:31:01.879Z,16.58
2018-01-14T02:33:29.417Z,14.02
2018-01-14T02:35:56.930Z,16.80
2018-01-14T02:38:24.544Z,14.77
2018-01-14T02:40:52.057Z,15.77
2018-01-14T02:43:19.592Z,16.08
2018-01-14T02:45:47.142Z,15.48
2018-01-14T02:48:14.678Z,13.13
2018-01-14T02:50:43.004Z,15.25
2018-01-14T02:53:10.584Z,13.43
2018-01-14T02:55:38.121Z,15.02
2018-01-14T02:58:05.688Z,14.93
2018-01-14T03:00:33.209Z,14.68
2018-01-14T03:03:00.766Z,15.80
2018-01-14T03:05:28.330Z,14.73
2018-01-14T03:07:55.859Z,15.10
2018-01-14T03:10:24.163Z,15.75
2018-01-14T03:12:51.843Z,15.20
2018-01-14T03:15:19.401Z,14.23
2018-01-14T03:17:46.931Z,14.00
2018-01-14T03:20:15.224Z,15.13
2018-01-14T03:22:42.751Z,13.68
2018-01-14T03:25:10.352Z,14.45
2018-01-14T03:27:37.925Z,13.93
2018-01-14T03:30:05.469Z,14.15
2018-01-14T03:32:32.975Z,14.75
2018-01-14T03:35:00.505Z,14.25
2018-01-14T03:37:28.012Z,14.82
2018-01-14T03:39:55.627Z,15.52
2018-01-14T03:42:23.167Z,15.68
2018-01-14T03:44:50.848Z,15.00
2018-01-14T03:47:18.405Z,15.70
2018-01-14T03:49:45.965Z,17.12
2018-01-14T03:52:13.528Z,14.20
2018-01-14T03:54:41.083Z,14.70
2018-01-14T03:57:09.009Z,15.15
2018-01-14T03:59:36.543Z,15.27
2018-01-14T04:02:04.196Z,15.48
2018-01-14T04:04:31.707Z,14.87
2018-01-14T04:07:00.010Z,16.08
2018-01-14T04:09:27.528Z,14.60
2018-01-14T04:11:55.138Z,15.73
2018-01-14T04:14:23.541Z,14.52
2018-01-14T04:16:51.078Z,16.35
2018-01-14T04:19:21.509Z,17.08
2018-01-14T04:21:49.042Z,16.40
2018-01-14T04:24:17.320Z,14.52
2018-01-14T04:26:44.864Z,13.90
2018-01-14T04:29:13.135Z,14.10
2018-01-14T04:31:40.661Z,14.77
2018-01-14T04:34:08.172Z,14.45
2018-01-14T04:36:36.467Z,13.13
2018-01-14T04:39:03.990Z,12.55
2018-01-14T04:41:31.587Z,13.60
2018-01-14T04:43:59.104Z,12.70
2018-01-14T04:46:26.630Z,12.77
2018-01-14T04:48:54.184Z,11.57
2018-01-14T04:51:21.720Z,14.43
2018-01-14T04:53:50.003Z,12.68
2018-01-14T04:56:17.650Z,13.90
2018-01-14T04:58:45.982Z,14.15
2018-01-14T05:01:13.504Z,14.70
2018-01-14T05:03:41.028Z,14.63
2018-01-14T05:06:08.547Z,15.55
2018-01-14T05:08:36.074Z,15.15
2018-01-14T05:11:05.212Z,16.12
2018-01-14T05:13:32.852Z,17.15
2018-01-14T05:16:00.374Z,16.35
2018-01-14T05:18:27.973Z,16.45
2018-01-14T05:20:55.505Z,15.50
2018-01-14T05:23:23.814Z,13.88
2018-01-14T05:25:51.327Z,17.87
2018-01-14T05:28:18.861Z,18.08
2018-01-14T05:30:46.997Z,17.12
2018-01-14T05:33:14.551Z,15.55
2018-01-14T05:35:42.150Z,16.87
2018-01-14T05:38:09.684Z,16.67
2018-01-14T05:40:43.259Z,18.02
2018-01-14T05:43:11.779Z,16.95
2018-01-14T05:45:39.479Z,16.52
2018-01-14T05:48:07.021Z,15.93
2018-01-14T05:50:34.549Z,17.48
2018-01-14T05:53:02.122Z,16.37
2018-01-14T05:55:29.665Z,19.02
2018-01-14T05:57:57.236Z,17.20
2018-01-14T06:00:24.764Z,17.58
2018-01-14T06:02:53.068Z,15.50
2018-01-14T06:05:20.631Z,17.40
2018-01-14T06:07:48.159Z,16.17
2018-01-14T06:10:16.470Z,16.30
2018-01-14T06:12:43.980Z,17.23
2018-01-14T06:15:12.252Z,15.20
2018-01-14T06:17:39.907Z,17.25
2018-01-14T06:20:07.447Z,16.30
2018-01-14T06:22:34.970Z,15.82
2018-01-14T06:25:03.271Z,18.40
2018-01-14T06:27:30.830Z,18.65
2018-01-14T06:29:58.361Z,20.77
2018-01-14T06:32:26.680Z,19.87
2018-01-14T06:34:54.229Z,16.73
2018-01-14T06:37:21.792Z,19.15
2018-01-14T06:39:49.335Z,19.58
2018-01-14T06:42:16.920Z,19.15
2018-01-14T06:44:44.470Z,18.70
2018-01-14T06:47:12.039Z,18.92
2018-01-14T06:49:39.578Z,17.27
2018-01-14T06:52:07.880Z,17.40
2018-01-14T06:54:35.445Z,18.50
2018-01-14T06:57:02.998Z,20.10
2018-01-14T06:59:30.559Z,19.42
2018-01-14T07:01:58.133Z,18.90
2018-01-14T07:04:25.696Z,18.62
2018-01-14T07:06:53.212Z,17.58
2018-01-14T07:09:21.496Z,19.52
2018-01-14T07:11:49.028Z,19.60
2018-01-14T07:14:17.309Z,21.23
2018-01-14T07:16:44.864Z,20.33
2018-01-14T07:19:12.381Z,20.70
2018-01-14T07:21:39.913Z,19.83
2018-01-14T07:24:07.488Z,19.90
2018-01-14T07:26:35.046Z,20.95
2018-01-14T07:29:02.617Z,21.23
2018-01-14T07:31:30.164Z,21.45
2018-01-14T07:33:57.723Z,19.83
2018-01-14T07:36:25.288Z,21.20
2018-01-14T07:38:52.816Z,20.60
2018-01-14T07:41:22.749Z,22.92
2018-01-14T07:43:51.050Z,22.58
2018-01-14T07:46:18.599Z,21.95
2018-01-14T07:48:46.112Z,21.77
2018-01-14T07:51:13.646Z,22.37
2018-01-14T07:53:41.168Z,20.40
2018-01-14T07:56:09.555Z,20.35
2018-01-14T07:58:37.076Z,21.98
2018-01-14T08:01:04.616Z,20.23
2018-01-14T08:03:32.144Z,21.55
2018-01-14T08:05:59.710Z,21.83
2018-01-14T08:08:27.285Z,22.02
2018-01-14T08:10:54.939Z,22.37
2018-01-14T08:13:22.483Z,22.42
2018-01-14T08:15:50.009Z,22.90
2018-01-14T08:18:17.549Z,21.33
2018-01-14T08:20:45.064Z,21.77
2018-01-14T08:23:12.604Z,22.50
2018-01-14T08:25:40.915Z,21.35
2018-01-14T08:28:08.476Z,23.48
2018-01-14T08:30:36.022Z,20.55
2018-01-14T08:33:03.577Z,23.20
2018-01-14T08:35:31.093Z,21.27
2018-01-14T08:37:58.616Z,23.65
2018-01-14T08:40:26.189Z,23.83
2018-01-14T08:42:53.731Z,22.08
2018-01-14T08:45:21.287Z,21.00
2018-01-14T08:47:48.850Z,22.35
2018-01-14T08:50:16.408Z,25.25
2018-01-14T08:52:43.956Z,24.12
2018-01-14T08:55:12.255Z,21.70
2018-01-14T08:57:39.814Z,21.65
2018-01-14T09:00:07.329Z,17.95
2018-01-14T09:02:34.920Z,22.58
2018-01-14T09:05:02.493Z,21.23
2018-01-14T09:07:30.033Z,24.37
2018-01-14T09:09:58.307Z,22.02
2018-01-14T09:12:26.615Z,24.98
2018-01-14T09:14:54.252Z,21.87
2018-01-14T09:17:22.537Z,21.92
2018-01-14T09:19:50.072Z,23.92
2018-01-14T09:22:18.379Z,24.80
2018-01-14T09:24:45.941Z,21.85
2018-01-14T09:27:13.448Z,24.25
2018-01-14T09:29:41.060Z,25.08
2018-01-14T09:32:08.577Z,25.73
2018-01-14T09:34:36.184Z,23.12
2018-01-14T09:37:03.743Z,24.58
2018-01-14T09:39:31.313Z,22.02
2018-01-14T09:41:58.832Z,24.80
2018-01-14T09:44:26.438Z,22.92
2018-01-14T09:46:54.029Z,24.65
2018-01-14T09:49:21.648Z,22.48
2018-01-14T09:51:49.173Z,24.67
2018-01-14T09:54:16.772Z,23.75
2018-01-14T09:56:44.312Z,25.37
2018-01-14T09:59:11.876Z,22.98
2018-01-14T10:01:40.164Z,24.65
2018-01-14T10:04:07.707Z,22.20
2018-01-14T10:06:36.063Z,22.95
2018-01-14T10:09:03.788Z,23.90
2018-01-14T10:11:31.336Z,23.90
2018-01-14T10:13:59.158Z,22.00
2018-01-14T10:16:26.783Z,22.37
2018-01-14T10:18:54.437Z,24.27
2018-01-14T10:21:22.098Z,24.00
2018-01-14T10:23:49.765Z,23.00
2018-01-14T10:26:17.501Z,21.45
2018-01-14T10:28:45.012Z,23.42
2018-01-14T10:31:12.670Z,23.02
2018-01-14T10:33:40.199Z,23.45
2018-01-14T10:36:07.749Z,23.42
2018-01-14T10:38:35.444Z,22.60
2018-01-14T10:41:02.981Z,23.52
2018-01-14T10:43:30.564Z,22.40
2018-01-14T10:45:58.135Z,23.70
2018-01-14T10:48:25.664Z,23.60
2018-01-14T10:50:53.219Z,24.98
2018-01-14T10:53:20.744Z,22.45
2018-01-14T10:55:48.302Z,21.73
2018-01-14T10:58:15.842Z,24.77
2018-01-14T11:00:49.022Z,21.63
2018-01-14T11:03:16.562Z,23.65
2018-01-14T11:05:44.123Z,23.83
2018-01-14T11:08:11.650Z,21.80
2018-01-14T11:10:39.943Z,21.90
2018-01-14T11:13:07.548Z,23.70
2018-01-14T11:15:35.441Z,23.87
2018-01-14T11:18:02.995Z,23.20
2018-01-14T11:20:30.509Z,23.70
2018-01-14T11:22:58.067Z,22.70
2018-01-14T11:25:25.755Z,22.58
2018-01-14T11:27:53.313Z,22.85
2018-01-14T11:30:20.984Z,22.13
2018-01-14T11:32:48.544Z,22.60
2018-01-14T11:35:16.075Z,21.15
2018-01-14T11:37:43.665Z,21.98
2018-01-14T11:40:11.210Z,22.05
2018-01-14T11:42:38.865Z,23.48
2018-01-14T11:45:06.517Z,24.17
2018-01-14T11:47:34.081Z,22.48
2018-01-14T11:50:01.849Z,22.87
2018-01-14T11:52:29.437Z,22.92
2018-01-14T11:54:56.964Z,23.05
2018-01-14T11:57:24.508Z,24.25
2018-01-14T11:59:52.920Z,24.70
2018-01-14T12:02:20.481Z,24.83
2018-01-14T12:04:47.991Z,26.27
2018-01-14T12:07:16.321Z,23.42
2018-01-14T12:09:44.044Z,26.80
2018-01-14T12:12:12.468Z,24.48
2018-01-14T12:14:39.989Z,22.90
2018-01-14T12:17:08.426Z,23.85
2018-01-14T12:19:35.939Z,24.92
2018-01-14T12:22:03.624Z,25.35
2018-01-14T12:24:31.263Z,23.38
2018-01-14T12:26:58.829Z,21.48
2018-01-14T12:29:26.423Z,23.42
2018-01-14T12:31:53.956Z,21.98
2018-01-14T12:34:39.411Z,21.75
2018-01-14T12:37:06.912Z,22.55
2018-01-14T12:39:34.478Z,22.87
2018-01-14T12:42:02.032Z,29.35
2018-01-14T12:44:29.743Z,27.00
2018-01-14T12:46:57.353Z,23.92
2018-01-14T12:49:25.023Z,23.15
2018-01-14T12:51:52.702Z,23.55
2018-01-14T12:54:20.375Z,24.30
2018-01-14T12:56:47.918Z,23.50
2018-01-14T12:59:15.469Z,23.48
2018-01-14T13:01:43.283Z,40.53
2018-01-14T13:04:11.005Z,23.77
2018-01-14T13:06:39.696Z,24.17
2018-01-14T13:09:07.448Z,27.37
2018-01-14T13:11:35.017Z,53.40
2018-01-14T13:14:02.643Z,28.40
2018-01-14T13:16:30.925Z,36.60
2018-01-14T13:18:58.819Z,22.30
2018-01-14T13:21:26.477Z,24.55
2018-01-14T13:23:54.072Z,22.83
2018-01-14T13:26:21.926Z,29.98
2018-01-14T13:28:49.588Z,22.92
2018-01-14T13:31:17.236Z,22.45
2018-01-14T13:33:45.109Z,24.10
2018-01-14T13:36:12.972Z,24.70
2018-01-14T13:38:40.638Z,23.40
2018-01-14T13:41:08.781Z,23.00
2018-01-14T13:43:36.393Z,24.50
2018-01-14T13:46:04.137Z,22.52
2018-01-14T13:48:31.836Z,22.75
2018-01-14T13:50:59.404Z,20.80
2018-01-14T13:53:27.126Z,23.00
2018-01-14T13:55:54.683Z,19.92
2018-01-14T13:58:22.252Z,21.75
2018-01-14T14:00:49.812Z,24.83
2018-01-14T14:03:17.470Z,21.40
2018-01-14T14:05:45.024Z,22.92
2018-01-14T14:08:12.545Z,24.77
2018-01-14T14:10:40.141Z,22.35
2018-01-14T14:13:07.676Z,23.73
2018-01-14T14:15:35.976Z,22.45
2018-01-14T14:18:03.582Z,23.60
2018-01-14T14:20:31.123Z,22.37
2018-01-14T14:22:58.691Z,24.20
2018-01-14T14:25:26.217Z,25.05
2018-01-14T14:27:53.761Z,23.15
2018-01-14T14:30:22.166Z,23.83
2018-01-14T14:32:49.729Z,22.33
2018-01-14T14:35:17.283Z,23.95
2018-01-14T14:37:44.853Z,27.95
2018-01-14T14:40:12.378Z,23.80
2018-01-14T14:42:40.680Z,23.60
2018-01-14T14:45:08.253Z,24.50
2018-01-14T14:47:35.824Z,22.98
2018-01-14T14:50:03.385Z,23.52
2018-01-14T14:52:30.940Z,24.50
2018-01-14T14:54:58.453Z,25.52
2018-01-14T14:57:26.857Z,24.10
2018-01-14T14:59:54.392Z,25.70
2018-01-14T15:02:22.708Z,25.17
2018-01-14T15:04:50.281Z,25.12
2018-01-14T15:07:17.819Z,25.40
2018-01-14T15:09:45.393Z,24.15
2018-01-14T15:12:12.924Z,24.33
2018-01-14T15:14:41.208Z,23.75
2018-01-14T15:17:09.501Z,24.70
2018-01-14T15:19:37.045Z,23.10
2018-01-14T15:22:04.638Z,21.27
2018-01-14T15:24:32.186Z,24.10
2018-01-14T15:26:59.720Z,23.80
2018-01-14T15:29:28.030Z,24.77
2018-01-14T15:31:55.591Z,23.05
2018-01-14T15:34:23.130Z,22.60
2018-01-14T15:36:50.692Z,23.25
2018-01-14T15:39:18.273Z,26.00
2018-01-14T15:41:45.807Z,22.83
2018-01-14T15:44:13.382Z,23.00
2018-01-14T15:46:40.956Z,23.98
2018-01-14T15:49:08.496Z,21.98
2018-01-14T15:51:36.077Z,23.55
2018-01-14T15:54:03.623Z,22.58
2018-01-14T15:56:31.343Z,23.02
2018-01-14T15:58:59.680Z,22.25
2018-01-14T16:01:27.239Z,23.85
2018-01-14T16:03:54.811Z,24.20
2018-01-14T16:06:22.340Z,23.40
2018-01-14T16:08:49.920Z,22.95
2018-01-14T16:11:17.463Z,24.27
2018-01-14T16:13:45.936Z,23.30
2018-01-14T16:16:14.269Z,24.83
2018-01-14T16:18:41.804Z,23.98
2018-01-14T16:21:09.356Z,23.33
2018-01-14T16:23:36.915Z,22.42
2018-01-14T16:26:04.478Z,22.65
2018-01-14T16:28:32.038Z,23.92
2018-01-14T16:30:59.554Z,20.98
2018-01-14T16:33:27.153Z,22.55
2018-01-14T16:35:54.685Z,23.58
2018-01-14T16:38:22.979Z,23.87
2018-01-14T16:40:51.292Z,23.92
2018-01-14T16:43:18.835Z,21.83
2018-01-14T16:45:46.368Z,25.45
2018-01-14T16:48:14.662Z,22.85
2018-01-14T16:50:42.212Z,24.58
2018-01-14T16:53:10.606Z,23.38
2018-01-14T16:55:38.177Z,19.87
2018-01-14T16:58:05.714Z,22.33
2018-01-14T17:00:34.086Z,23.45
2018-01-14T17:03:02.512Z,21.50
2018-01-14T17:05:30.029Z,22.37
2018-01-14T17:07:58.452Z,22.92
2018-01-14T17:10:25.976Z,23.20
2018-01-14T17:12:54.247Z,22.87
2018-01-14T17:15:22.557Z,22.73
2018-01-14T17:17:50.122Z,21.77
2018-01-14T17:20:18.034Z,23.00
2018-01-14T17:22:45.585Z,22.42
2018-01-14T17:25:13.132Z,24.73
2018-01-14T17:27:40.676Z,23.83
2018-01-14T17:30:08.216Z,22.62
2018-01-14T17:32:35.782Z,22.10
2018-01-14T17:35:03.448Z,23.38
2018-01-14T17:37:31.112Z,23.98
2018-01-14T17:39:58.668Z,22.80
2018-01-14T17:42:26.388Z,25.60
2018-01-14T17:44:53.978Z,21.80
2018-01-14T17:47:21.765Z,24.80
2018-01-14T17:49:50.283Z,24.87
2018-01-14T17:52:18.064Z,22.45
2018-01-14T17:54:45.621Z,23.30
2018-01-14T17:57:13.339Z,20.90
2018-01-14T17:59:40.884Z,23.20
2018-01-14T18:02:08.487Z,24.23
2018-01-14T18:04:36.235Z,22.42
2018-01-14T18:07:03.794Z,22.67
2018-01-14T18:09:31.551Z,21.30
2018-01-14T18:11:59.133Z,21.12
2018-01-14T18:14:27.196Z,21.58
2018-01-14T18:17:01.349Z,23.83
2018-01-14T18:19:29.287Z,22.60
2018-01-14T18:21:57.029Z,23.10
2018-01-14T18:24:24.550Z,23.00
2018-01-14T18:26:52.228Z,25.58
2018-01-14T18:29:20.524Z,22.77
2018-01-14T18:31:48.181Z,23.17
2018-01-14T18:34:15.760Z,21.45
2018-01-14T18:36:43.292Z,21.20
2018-01-14T18:39:11.587Z,22.48
2018-01-14T18:41:39.157Z,22.25
2018-01-14T18:44:06.716Z,23.08
2018-01-14T18:46:34.282Z,20.98
2018-01-14T18:49:01.940Z,22.65
2018-01-14T18:51:29.527Z,21.10
2018-01-14T18:53:57.069Z,20.48
2018-01-14T18:56:24.626Z,21.05
2018-01-14T18:58:52.284Z,22.40
2018-01-14T19:01:19.948Z,22.17
2018-01-14T19:03:47.527Z,20.02
2018-01-14T19:06:15.290Z,21.35
2018-01-14T19:08:43.040Z,21.30
2018-01-14T19:11:10.725Z,18.15
2018-01-14T19:13:38.321Z,21.62
2018-01-14T19:16:06.734Z,21.48
2018-01-14T19:18:34.853Z,22.52
2018-01-14T19:21:03.607Z,22.30
2018-01-14T19:23:31.546Z,21.62
2018-01-14T19:25:59.089Z,21.65
2018-01-14T19:28:27.215Z,23.02
2018-01-14T19:30:55.804Z,20.00
2018-01-14T19:33:23.867Z,21.60
2018-01-14T19:35:52.942Z,21.65
2018-01-14T19:38:21.330Z,21.08
2018-01-14T19:40:48.901Z,23.00
2018-01-14T19:43:16.450Z,21.10
2018-01-14T19:45:43.966Z,20.65
2018-01-14T19:48:11.524Z,20.70
2018-01-14T19:50:39.173Z,20.70
2018-01-14T19:53:06.804Z,21.55
2018-01-14T19:55:34.338Z,21.15
2018-01-14T19:58:02.746Z,22.62
2018-01-14T20:00:30.304Z,21.48
2018-01-14T20:02:57.865Z,20.33
2018-01-14T20:05:25.399Z,21.02
2018-01-14T20:07:53.710Z,22.30
2018-01-14T20:10:21.295Z,20.55
2018-01-14T20:12:49.141Z,20.80
2018-01-14T20:15:17.982Z,21.83
2018-01-14T20:17:47.687Z,22.75
2018-01-14T20:20:16.357Z,21.30
2018-01-14T20:22:45.981Z,22.62
2018-01-14T20:25:15.978Z,21.08
2018-01-14T20:27:45.085Z,22.45
2018-01-14T20:30:13.843Z,21.02
2018-01-14T20:32:42.868Z,23.45
2018-01-14T20:35:11.804Z,21.62
2018-01-14T20:37:39.533Z,20.58
2018-01-14T20:40:08.674Z,21.83
2018-01-14T20:42:36.200Z,22.75
2018-01-14T20:45:03.910Z,21.98
2018-01-14T20:47:31.498Z,21.55
2018-01-14T20:49:59.340Z,21.95
2018-01-14T20:52:26.983Z,22.05
2018-01-14T20:54:54.576Z,22.65
2018-01-14T20:57:22.124Z,22.00
2018-01-14T20:59:49.781Z,22.20
2018-01-14T21:02:17.313Z,21.85
2018-01-14T21:04:45.743Z,21.92
2018-01-14T21:07:13.258Z,21.73
2018-01-14T21:09:41.666Z,22.17
2018-01-14T21:12:09.353Z,21.83
2018-01-14T21:14:36.932Z,21.12
2018-01-14T21:17:04.461Z,22.08
2018-01-14T21:19:32.009Z,23.40
2018-01-14T21:21:59.534Z,25.83
2018-01-14T21:24:27.955Z,21.05
2018-01-14T21:26:55.570Z,22.92
2018-01-14T21:29:23.182Z,21.37
2018-01-14T21:31:50.699Z,21.27
2018-01-14T21:34:19.170Z,22.17
2018-01-14T21:36:46.773Z,21.40
2018-01-14T21:39:14.900Z,21.87
2018-01-14T21:41:43.381Z,24.40
2018-01-14T21:44:11.705Z,21.65
2018-01-14T21:46:39.313Z,22.75
2018-01-14T21:49:06.836Z,20.05
2018-01-14T21:51:34.397Z,21.70
2018-01-14T21:54:01.924Z,22.45
2018-01-14T21:56:30.294Z,22.50
2018-01-14T21:58:58.643Z,19.65
2018-01-14T22:01:26.317Z,21.87
2018-01-14T22:03:53.826Z,19.12
2018-01-14T22:06:21.388Z,18.87
2018-01-14T22:08:48.937Z,19.58
2018-01-14T22:11:16.674Z,20.27
2018-01-14T22:13:44.195Z,20.00
2018-01-14T22:16:11.737Z,19.52
2018-01-14T22:18:39.291Z,19.42
2018-01-14T22:21:07.680Z,19.52
2018-01-14T22:23:36.069Z,19.87
2018-01-14T22:26:03.727Z,19.58
2018-01-14T22:28:31.284Z,18.35
2018-01-14T22:30:58.844Z,17.85
2018-01-14T22:33:26.410Z,18.40
2018-01-14T22:35:55.075Z,19.33
2018-01-14T22:38:23.660Z,20.60
2018-01-14T22:40:51.227Z,18.55
2018-01-14T22:43:18.787Z,18.85
2018-01-14T22:45:46.347Z,19.00
2018-01-14T22:48:13.885Z,18.85
2018-01-14T22:50:41.476Z,18.10
2018-01-14T22:53:09.025Z,17.62
2018-01-14T22:55:36.542Z,18.40
2018-01-14T22:58:04.876Z,18.05
2018-01-14T23:00:32.391Z,17.58
2018-01-14T23:02:59.927Z,19.40
2018-01-14T23:05:27.467Z,17.35
2018-01-14T23:07:55.099Z,18.08
2018-01-14T23:10:22.678Z,17.40
2018-01-14T23:12:50.236Z,16.00
2018-01-14T23:15:18.618Z,16.52
2018-01-14T23:17:46.881Z,17.65
2018-01-14T23:20:15.288Z,16.70
2018-01-14T23:22:42.811Z,15.70
2018-01-14T23:25:11.185Z,14.77
2018-01-14T23:27:39.497Z,15.45
2018-01-14T23:30:07.056Z,16.23
2018-01-14T23:32:34.584Z,14.13
2018-01-14T23:35:02.880Z,14.70
2018-01-14T23:37:30.403Z,15.63
2018-01-14T23:39:57.953Z,15.23
2018-01-14T23:42:25.576Z,15.45
2018-01-14T23:44:53.107Z,14.68
2018-01-14T23:47:21.384Z,14.70
2018-01-14T23:49:49.787Z,13.85
2018-01-14T23:52:17.304Z,14.52
2018-01-14T23:54:44.896Z,14.93
2018-01-14T23:57:12.425Z,14.40
2018-01-14T23:59:40.029Z,14.93
